Terminal Aerodrome Forecast
Issued by NWS

Current Version | Previous Version | Graphics & Text | Print | Product List | Glossary On
Versions: 1 2 3 4 5 6 7 8 9 10 11 12 13 14 15 16 17 18 19 20 21 22 23 24 25 26 27 28 29 30 31 32 33 34 35 36 37 38 39 40 41 42 43 44 45 46 47 48 49
342
FTUS41 KRNK 291120
TAFLWB
TAF
KLWB 291120Z 2912/3012 26003KT P6SM SCT025
     FM291900 29006KT P6SM BKN050
      TEMPO 2919/2921 3SM TSRA OVC035CB
     FM292300 29004KT P6SM SCT110
     FM300700 00000KT P6SM BKN070=

USA.gov is the U.S. government's official web portal to all federal, state and local government web resources and services.